Time;durP1;ratioP1;P1;durP2;ratioP2;P2;SDS_P1;SDS_P2;PMS_P1;PMS_P2;Temp;Humidity;BMP_temperature;BMP_pressure;BME280_temperature;BME280_humidity;BME280_pressure;Samples;Min_cycle;Max_cycle;Signal;HPM_P1;HPM_P2
2024/02/01 00:02:10;;;;;;;8.97;4.60;;;16.30;99.90;;;;;;5030374;28;20032;-74
2024/02/01 00:04:36;;;;;;;10.17;4.87;;;16.30;99.90;;;;;;5029795;28;20099;-75
2024/02/01 00:07:02;;;;;;;8.83;4.33;;;16.30;99.90;;;;;;5029223;28;20032;-76
2024/02/01 00:09:27;;;;;;;10.93;4.90;;;16.30;99.90;;;;;;5029857;28;20393;-76
2024/02/01 00:11:53;;;;;;;9.40;4.20;;;16.30;99.90;;;;;;5029496;28;20035;-74
2024/02/01 00:14:19;;;;;;;7.30;4.27;;;16.30;99.90;;;;;;5029971;28;20026;-75
2024/02/01 00:16:44;;;;;;;8.63;4.13;;;16.30;99.90;;;;;;5029413;28;20061;-76
2024/02/01 00:19:10;;;;;;;8.97;4.93;;;16.30;99.90;;;;;;5029626;28;20017;-76
2024/02/01 00:21:36;;;;;;;10.97;4.30;;;16.20;99.90;;;;;;5029615;28;20474;-76
2024/02/01 00:24:02;;;;;;;11.30;4.90;;;16.20;99.90;;;;;;5029325;28;20041;-75
2024/02/01 00:26:28;;;;;;;12.00;4.55;;;16.20;99.90;;;;;;5029114;28;20033;-75
2024/02/01 00:28:54;;;;;;;7.40;4.57;;;16.20;99.90;;;;;;5029037;28;20183;-75
2024/02/01 00:31:19;;;;;;;8.37;3.80;;;16.20;99.90;;;;;;5030729;28;20021;-75
2024/02/01 00:33:45;;;;;;;5.27;3.77;;;16.20;99.90;;;;;;5030564;28;20049;-75
2024/02/01 00:36:11;;;;;;;8.97;4.03;;;16.30;99.90;;;;;;5029031;28;20030;-74
2024/02/01 00:38:36;;;;;;;8.40;4.27;;;16.20;99.90;;;;;;5030573;28;20025;-75
2024/02/01 00:41:05;;;;;;;7.80;3.87;;;16.20;99.90;;;;;;5029872;28;20039;-76
2024/02/01 00:43:31;;;;;;;9.23;3.60;;;16.20;99.90;;;;;;5029432;28;20034;-75
2024/02/01 00:45:57;;;;;;;9.13;3.83;;;16.20;99.90;;;;;;5025867;28;20035;-74
2024/02/01 00:48:22;;;;;;;6.37;3.33;;;16.20;99.90;;;;;;5032137;28;20124;-75
2024/02/01 00:50:48;;;;;;;10.13;3.47;;;16.20;99.90;;;;;;5032794;28;20470;-74
2024/02/01 00:53:14;;;;;;;15.43;4.17;;;16.20;99.90;;;;;;5028892;28;20026;-75
2024/02/01 00:55:40;;;;;;;7.03;3.23;;;16.20;99.90;;;;;;5032401;28;20120;-75
2024/02/01 00:58:06;;;;;;;6.10;3.30;;;16.20;99.90;;;;;;5033972;28;20084;-76
2024/02/01 01:00:32;;;;;;;6.13;3.10;;;16.20;99.90;;;;;;5031822;28;20061;-74
2024/02/01 01:02:59;;;;;;;6.20;3.28;;;16.20;99.90;;;;;;5032254;28;20033;-75
2024/02/01 01:05:25;;;;;;;;;;;16.20;99.90;;;;;;5033518;28;20109;-74
2024/02/01 01:07:50;;;;;;;7.50;3.00;;;16.10;99.90;;;;;;5033457;28;20004;-75
2024/02/01 01:10:16;;;;;;;6.67;2.87;;;16.20;99.90;;;;;;5033777;28;20087;-75
2024/02/01 01:12:42;;;;;;;7.23;3.17;;;16.20;99.90;;;;;;5033707;28;20030;-74
2024/02/01 01:15:08;;;;;;;6.23;3.10;;;16.20;99.90;;;;;;5033381;28;20505;-75
2024/02/01 01:17:34;;;;;;;8.52;2.63;;;16.20;99.90;;;;;;5031825;28;20367;-75
2024/02/01 01:20:02;;;;;;;7.50;3.20;;;16.20;99.90;;;;;;5031939;28;20041;-77
2024/02/01 01:22:29;;;;;;;7.80;2.95;;;16.20;99.90;;;;;;5033259;28;20032;-75
2024/02/01 01:24:55;;;;;;;4.90;2.47;;;16.20;99.90;;;;;;5032200;28;20385;-74
2024/02/01 01:27:21;;;;;;;4.95;2.20;;;16.20;99.90;;;;;;5033114;28;20374;-75
2024/02/01 01:29:47;;;;;;;4.88;2.60;;;16.20;99.90;;;;;;5033306;28;20040;-75
2024/02/01 01:32:15;;;;;;;6.20;2.83;;;16.20;99.90;;;;;;5033170;28;20033;-75
2024/02/01 01:34:40;;;;;;;5.30;3.05;;;16.20;99.90;;;;;;5032590;28;20398;-76
2024/02/01 01:37:06;;;;;;;7.40;3.03;;;16.20;99.90;;;;;;5032673;28;20029;-75
2024/02/01 01:39:32;;;;;;;9.87;2.87;;;16.20;99.90;;;;;;5031094;28;20485;-76
2024/02/01 01:41:57;;;;;;;5.83;2.53;;;16.10;99.90;;;;;;5033438;28;20036;-75
2024/02/01 01:44:23;;;;;;;10.67;2.83;;;16.20;99.90;;;;;;5029190;28;20052;-75
2024/02/01 01:46:49;;;;;;;5.40;2.60;;;16.20;99.90;;;;;;5031550;28;20029;-75
2024/02/01 01:49:17;;;;;;;4.37;2.47;;;16.20;99.90;;;;;;5032505;28;20034;-74
2024/02/01 01:51:45;;;;;;;5.53;2.60;;;16.10;99.90;;;;;;5032216;28;20033;-75
2024/02/01 01:54:11;;;;;;;4.90;2.33;;;16.10;99.90;;;;;;5031246;28;20034;-75
2024/02/01 01:56:42;;;;;;;5.90;2.50;;;16.20;99.90;;;;;;5031273;28;20052;-75
2024/02/01 01:59:10;;;;;;;5.22;2.30;;;16.20;99.90;;;;;;5031309;28;20038;-75
2024/02/01 02:01:38;;;;;;;7.90;2.70;;;16.20;99.90;;;;;;5030767;28;20036;-75
2024/02/01 02:04:07;;;;;;;7.32;2.63;;;16.20;99.90;;;;;;5032744;28;20047;-74
2024/02/01 02:06:33;;;;;;;6.07;2.45;;;16.10;99.90;;;;;;5028846;28;20025;-75
2024/02/01 02:08:59;;;;;;;5.95;2.50;;;16.20;99.90;;;;;;5026653;28;20041;-75
2024/02/01 02:11:28;;;;;;;5.95;2.50;;;16.20;99.90;;;;;;5017869;28;20033;-74
2024/02/01 02:13:54;;;;;;;7.38;2.60;;;16.10;99.90;;;;;;5027036;28;20041;-73
2024/02/01 02:16:19;;;;;;;5.77;1.93;;;16.10;99.90;;;;;;5027511;28;20114;-76
2024/02/01 02:18:45;;;;;;;7.13;2.40;;;16.10;99.90;;;;;;5028983;28;20474;-75
2024/02/01 02:21:13;;;;;;;6.20;2.92;;;16.10;99.90;;;;;;5030760;28;20529;-75
2024/02/01 02:23:39;;;;;;;6.63;2.47;;;16.10;99.90;;;;;;5024915;28;20095;-76
2024/02/01 02:26:07;;;;;;;4.40;2.07;;;16.10;99.90;;;;;;5030629;28;20033;-74
2024/02/01 02:28:35;;;;;;;7.82;2.35;;;16.10;99.90;;;;;;5030615;28;20087;-75
2024/02/01 02:31:03;;;;;;;3.70;1.83;;;16.10;99.90;;;;;;5024293;28;20426;-75
2024/02/01 02:33:29;;;;;;;4.75;2.03;;;16.10;99.90;;;;;;5029659;28;20049;-74
2024/02/01 02:35:54;;;;;;;5.43;2.38;;;16.10;99.90;;;;;;5030209;28;20478;-75
2024/02/01 02:38:22;;;;;;;6.57;1.93;;;16.10;99.90;;;;;;5030755;28;20025;-75
2024/02/01 02:40:48;;;;;;;8.32;2.78;;;16.10;99.90;;;;;;5026842;28;20033;-75
2024/02/01 02:43:14;;;;;;;7.77;2.23;;;16.00;99.90;;;;;;5030896;28;20363;-76
2024/02/01 02:45:39;;;;;;;6.87;2.03;;;16.00;99.90;;;;;;5030259;28;20183;-75
2024/02/01 02:48:06;;;;;;;7.73;2.83;;;16.00;99.90;;;;;;5031388;28;20075;-75
2024/02/01 02:50:32;;;;;;;4.20;1.90;;;16.00;99.90;;;;;;5029613;28;20029;-75
2024/02/01 02:52:57;;;;;;;6.13;1.93;;;16.00;99.90;;;;;;5030489;28;20045;-75
2024/02/01 02:55:23;;;;;;;7.77;2.00;;;16.00;99.90;;;;;;5028568;28;20651;-75
2024/02/01 02:57:49;;;;;;;8.17;2.30;;;16.00;99.90;;;;;;5029239;28;20136;-74
2024/02/01 03:00:18;;;;;;;13.33;2.30;;;15.90;99.90;;;;;;5030043;28;20025;-75
2024/02/01 03:02:47;;;;;;;7.72;2.10;;;15.90;99.90;;;;;;5029665;28;20458;-74
2024/02/01 03:05:17;;;;;;;8.63;2.25;;;15.90;99.90;;;;;;5029804;28;20466;-75
2024/02/01 03:07:43;;;;;;;4.53;1.85;;;15.90;99.90;;;;;;5031444;28;20033;-75
2024/02/01 03:10:10;;;;;;;7.78;1.63;;;15.90;99.90;;;;;;5031145;28;20029;-74
2024/02/01 03:12:35;;;;;;;4.72;1.65;;;15.90;99.90;;;;;;5031204;28;20109;-74
2024/02/01 03:15:01;;;;;;;10.37;2.37;;;15.90;99.90;;;;;;5016714;28;20197;-74
2024/02/01 03:17:27;;;;;;;4.67;2.03;;;15.90;99.90;;;;;;5030886;28;20026;-75
2024/02/01 03:19:53;;;;;;;5.53;1.93;;;15.90;99.90;;;;;;5046419;28;20270;-75
2024/02/01 03:22:19;;;;;;;4.60;1.50;;;15.90;99.90;;;;;;5030009;28;20140;-74
2024/02/01 03:24:46;;;;;;;4.97;2.00;;;15.80;99.90;;;;;;5030856;28;20112;-76
2024/02/01 03:27:13;;;;;;;7.32;1.70;;;15.80;99.90;;;;;;5029802;28;20025;-75
2024/02/01 03:29:41;;;;;;;9.18;1.90;;;15.80;99.90;;;;;;5029421;28;20478;-75
2024/02/01 03:32:06;;;;;;;10.20;1.85;;;15.80;99.90;;;;;;5029830;28;20565;-75
2024/02/01 03:34:32;;;;;;;4.70;2.00;;;15.80;99.90;;;;;;5029533;28;20140;-75
2024/02/01 03:37:01;;;;;;;10.93;2.50;;;15.80;99.90;;;;;;5029101;28;20462;-75
2024/02/01 03:39:29;;;;;;;5.43;1.73;;;15.80;99.90;;;;;;5030610;28;20017;-75
2024/02/01 03:41:56;;;;;;;3.55;1.65;;;15.80;99.90;;;;;;5028278;28;20029;-75
2024/02/01 03:44:23;;;;;;;9.27;2.15;;;15.70;99.90;;;;;;5018825;28;20030;-75
2024/02/01 03:46:51;;;;;;;7.57;1.70;;;15.70;99.90;;;;;;5029412;28;20037;-74
2024/02/01 03:49:19;;;;;;;8.57;1.92;;;15.70;99.90;;;;;;5029359;28;20037;-75
2024/02/01 03:51:45;;;;;;;3.95;1.50;;;15.70;99.90;;;;;;5030664;28;20025;-74
2024/02/01 03:54:11;;;;;;;4.82;1.50;;;15.60;99.90;;;;;;5030997;28;20030;-75
2024/02/01 03:56:40;;;;;;;7.07;1.50;;;15.60;99.90;;;;;;5030189;28;20084;-75
2024/02/01 03:59:09;;;;;;;6.20;1.80;;;15.60;99.90;;;;;;5029473;28;20102;-75
2024/02/01 04:01:36;;;;;;;6.43;2.22;;;15.60;99.90;;;;;;5034408;28;20068;-74
2024/02/01 04:04:03;;;;;;;6.60;1.90;;;15.60;99.90;;;;;;5028363;28;20044;-75
2024/02/01 04:06:28;;;;;;;;;;;15.60;99.90;;;;;;5031097;28;20455;-75
2024/02/01 04:08:55;;;;;;;5.07;1.27;;;15.50;99.90;;;;;;5029354;28;19924;-75
2024/02/01 04:11:21;;;;;;;7.63;1.98;;;15.50;99.90;;;;;;5030636;28;20271;-75
2024/02/01 04:13:46;;;;;;;7.07;1.83;;;15.50;99.90;;;;;;5027589;28;20041;-76
2024/02/01 04:16:12;;;;;;;5.13;1.60;;;15.50;99.90;;;;;;5017160;28;20117;-75
2024/02/01 04:18:38;;;;;;;10.57;2.63;;;15.50;99.90;;;;;;5029009;28;20459;-75
2024/02/01 04:21:06;;;;;;;8.40;1.90;;;15.50;99.90;;;;;;5032603;28;20037;-75
2024/02/01 04:23:31;;;;;;;4.97;1.70;;;15.50;99.90;;;;;;5032915;28;20131;-76
2024/02/01 04:25:57;;;;;;;8.40;1.90;;;15.50;99.90;;;;;;5032854;28;20125;-74
2024/02/01 04:28:23;;;;;;;9.30;2.07;;;15.50;99.90;;;;;;5023758;28;20124;-74
2024/02/01 04:30:53;;;;;;;5.20;1.20;;;15.40;99.90;;;;;;5032025;28;20521;-74
2024/02/01 04:33:20;;;;;;;6.43;1.45;;;15.40;99.90;;;;;;5033653;28;20128;-75
2024/02/01 04:35:46;;;;;;;4.25;1.40;;;15.40;99.90;;;;;;5034417;28;20047;-75
2024/02/01 04:38:12;;;;;;;6.10;1.58;;;15.40;99.90;;;;;;5031226;28;20381;-75
2024/02/01 04:40:38;;;;;;;5.05;1.50;;;15.40;99.90;;;;;;5033545;28;20100;-75
2024/02/01 04:43:05;;;;;;;4.75;1.60;;;15.40;99.90;;;;;;5034546;28;20030;-75
2024/02/01 04:45:31;;;;;;;6.32;1.58;;;15.30;99.90;;;;;;5032308;28;20025;-74
2024/02/01 04:47:57;;;;;;;7.57;1.73;;;15.30;99.90;;;;;;5033699;28;20040;-75
2024/02/01 04:50:23;;;;;;;5.57;1.30;;;15.30;99.90;;;;;;5027339;28;20025;-74
2024/02/01 04:52:49;;;;;;;6.73;1.80;;;15.30;99.90;;;;;;5030271;28;20041;-74
2024/02/01 04:55:15;;;;;;;4.63;1.50;;;15.30;99.90;;;;;;5029929;28;20467;-75
2024/02/01 04:57:41;;;;;;;4.80;1.50;;;15.30;99.90;;;;;;5029912;28;20053;-74
2024/02/01 05:00:16;;;;;;;8.00;1.63;;;15.30;99.90;;;;;;5031307;28;20061;-74
2024/02/01 05:02:42;;;;;;;6.50;1.40;;;15.20;99.90;;;;;;5031097;28;20125;-74
2024/02/01 05:05:10;;;;;;;3.67;1.03;;;15.20;99.90;;;;;;5031075;28;20100;-75
2024/02/01 05:07:42;;;;;;;6.38;1.60;;;15.20;99.90;;;;;;5026701;28;20025;-74
2024/02/01 05:10:09;;;;;;;5.63;1.90;;;15.20;99.90;;;;;;5024404;28;20021;-75
2024/02/01 05:12:35;;;;;;;6.88;1.33;;;15.20;99.90;;;;;;5029026;28;20025;-74
2024/02/01 05:15:07;;;;;;;8.02;1.40;;;15.20;99.90;;;;;;5022845;28;20120;-74
2024/02/01 05:17:33;;;;;;;5.60;1.85;;;15.20;99.90;;;;;;5031947;28;20466;-75
2024/02/01 05:19:59;;;;;;;6.03;1.90;;;15.10;99.90;;;;;;5032973;28;20037;-74
2024/02/01 05:22:28;;;;;;;6.10;1.43;;;15.10;99.90;;;;;;5032161;28;20033;-74
2024/02/01 05:24:54;;;;;;;9.00;1.70;;;15.10;99.90;;;;;;5031821;28;20538;-75
2024/02/01 05:27:20;;;;;;;8.00;1.87;;;15.10;99.90;;;;;;5032758;28;20039;-75
2024/02/01 05:29:49;;;;;;;3.92;1.50;;;15.10;99.90;;;;;;5031534;28;20029;-75
2024/02/01 05:32:16;;;;;;;4.13;1.42;;;15.10;99.90;;;;;;5032030;28;20029;-74
2024/02/01 05:34:42;;;;;;;6.43;1.35;;;15.10;99.90;;;;;;5031453;28;20056;-74
2024/02/01 05:37:08;;;;;;;6.47;1.87;;;15.10;99.90;;;;;;5031701;28;20041;-74
2024/02/01 05:39:34;;;;;;;3.40;1.13;;;15.10;99.90;;;;;;5031040;28;20029;-76
2024/02/01 05:42:07;;;;;;;7.68;1.67;;;15.10;99.90;;;;;;5027999;28;20106;-75
2024/02/01 05:44:33;;;;;;;5.25;1.60;;;15.10;99.90;;;;;;5030899;28;20037;-75
2024/02/01 05:46:59;;;;;;;7.25;1.38;;;15.00;99.90;;;;;;5033399;28;20037;-75
2024/02/01 05:49:28;;;;;;;4.37;1.50;;;15.00;99.90;;;;;;5031320;28;20029;-74
2024/02/01 05:51:59;;;;;;;8.15;1.85;;;15.00;99.90;;;;;;5031950;28;20025;-75
2024/02/01 05:54:24;;;;;;;7.53;1.50;;;15.00;99.90;;;;;;5032567;28;20033;-75
2024/02/01 05:56:50;;;;;;;4.50;1.07;;;15.00;99.90;;;;;;5031794;28;20385;-75
2024/02/01 05:59:18;;;;;;;3.83;1.50;;;14.90;99.90;;;;;;5031070;28;20084;-75
2024/02/01 06:01:44;;;;;;;3.85;1.38;;;14.90;99.90;;;;;;5031430;28;20550;-74
2024/02/01 06:04:11;;;;;;;4.68;1.40;;;14.90;99.90;;;;;;5032257;28;20033;-74
2024/02/01 06:06:39;;;;;;;6.85;1.38;;;14.90;99.90;;;;;;5031912;28;20368;-74
2024/02/01 06:09:10;;;;;;;5.95;1.33;;;14.90;99.90;;;;;;5032179;28;20724;-75
2024/02/01 06:11:48;;;;;;;6.57;1.33;;;14.90;99.90;;;;;;5031078;28;20430;-74
2024/02/01 06:14:14;;;;;;;3.00;1.30;;;14.90;99.90;;;;;;5022499;28;20026;-74
2024/02/01 06:16:40;;;;;;;7.40;1.15;;;14.90;99.90;;;;;;5027254;28;20124;-75
2024/02/01 06:19:07;;;;;;;4.88;1.40;;;14.80;99.90;;;;;;5031026;28;20493;-75
2024/02/01 06:21:33;;;;;;;5.97;1.48;;;14.80;99.90;;;;;;5031737;28;20045;-74
2024/02/01 06:23:59;;;;;;;6.20;1.60;;;14.80;99.90;;;;;;5030956;28;20706;-74
2024/02/01 06:26:27;;;;;;;5.40;1.30;;;14.80;99.90;;;;;;5032094;28;20075;-74
2024/02/01 06:28:54;;;;;;;2.97;1.10;;;14.80;99.90;;;;;;5030593;28;20505;-75
2024/02/01 06:31:19;;;;;;;;;;;14.80;99.90;;;;;;5030736;28;20038;-75
2024/02/01 06:33:50;;;;;;;4.37;1.30;;;14.80;99.90;;;;;;5040906;28;19921;-74
2024/02/01 06:36:19;;;;;;;6.15;1.30;;;14.70;99.90;;;;;;5022269;28;20099;-75
2024/02/01 06:38:55;;;;;;;4.47;1.52;;;14.70;99.90;;;;;;5027553;28;20057;-75
2024/02/01 06:44:09;;;;;;;4.32;1.02;;;14.70;99.90;;;;;;5028797;28;20045;-76
2024/02/01 06:57:53;;;;;;;5.28;1.50;;;14.70;99.90;;;;;;5028530;28;20056;-74
2024/02/01 07:03:57;;;;;;;6.18;1.73;;;14.70;99.90;;;;;;5029370;28;20067;-75
2024/02/01 07:06:06;;;;;;;7.65;1.30;;;14.60;99.90;;;;;;5030974;28;20116;-74
2024/02/01 07:13:57;;;;;;;9.90;1.40;;;14.70;99.90;;;;;;5029458;28;20038;-74
2024/02/01 07:16:25;;;;;;;4.55;1.20;;;14.80;99.90;;;;;;5029898;28;20059;-74
2024/02/01 07:19:09;;;;;;;10.77;1.80;;;14.80;99.90;;;;;;5029680;28;20025;-74
2024/02/01 07:21:59;;;;;;;25.20;2.83;;;14.80;99.90;;;;;;5029526;28;20029;-74
2024/02/01 07:24:37;;;;;;;;;;;14.80;99.90;;;;;;5031288;28;20040;-75
2024/02/01 07:57:35;;;;;;;26.40;2.70;;;14.80;99.90;;;;;;5029113;28;20362;-73
2024/02/01 07:59:58;;;;;;;28.20;5.85;;;15.20;99.90;;;;;;5045479;28;20072;-75
2024/02/01 08:02:49;;;;;;;16.30;5.18;;;15.30;99.90;;;;;;5038771;28;20457;-75
2024/02/01 08:08:09;;;;;;;18.40;6.28;;;15.60;99.90;;;;;;5036411;28;20036;-74
2024/02/01 08:10:34;;;;;;;18.80;6.90;;;15.80;99.90;;;;;;5032989;28;20044;-75
2024/02/01 08:13:07;;;;;;;20.50;6.20;;;16.10;99.90;;;;;;5025653;28;20033;-75
2024/02/01 08:15:41;;;;;;;17.67;6.88;;;16.50;99.90;;;;;;5026280;28;20042;-74
2024/02/01 08:18:08;;;;;;;18.67;6.65;;;16.90;99.90;;;;;;5031399;28;20467;-74
2024/02/01 08:20:40;;;;;;;31.70;11.23;;;17.20;99.90;;;;;;5033618;28;20033;-75
2024/02/01 08:23:18;;;;;;;23.50;10.90;;;17.50;99.90;;;;;;5025969;28;20030;-76
2024/02/01 08:25:45;;;;;;;18.67;10.63;;;17.80;99.90;;;;;;5037837;28;20034;-75
2024/02/01 08:28:11;;;;;;;22.88;10.80;;;18.10;99.90;;;;;;5032898;28;20025;-75
2024/02/01 08:30:37;;;;;;;20.03;10.03;;;18.40;99.90;;;;;;5036624;28;20034;-75
2024/02/01 08:33:03;;;;;;;20.57;9.17;;;18.70;99.90;;;;;;5031964;28;20051;-74
2024/02/01 08:35:35;;;;;;;17.95;8.85;;;18.90;99.90;;;;;;5035626;28;20461;-75
2024/02/01 08:38:06;;;;;;;21.90;8.68;;;19.20;99.90;;;;;;5034457;28;20060;-75
2024/02/01 08:40:32;;;;;;;18.42;8.30;;;19.40;99.90;;;;;;5040897;28;20024;-75
2024/02/01 08:42:58;;;;;;;15.75;7.35;;;19.50;99.90;;;;;;5037527;28;20036;-74
2024/02/01 08:45:28;;;;;;;12.07;6.88;;;19.70;99.90;;;;;;5023734;28;20045;-75
2024/02/01 08:48:02;;;;;;;16.77;7.80;;;19.40;99.90;;;;;;5021583;28;20059;-74
2024/02/01 08:50:42;;;;;;;16.10;7.70;;;19.20;99.90;;;;;;5036060;28;20083;-75
2024/02/01 08:53:13;;;;;;;21.25;7.35;;;18.90;99.90;;;;;;5039060;28;20355;-75
2024/02/01 08:55:39;;;;;;;14.85;8.05;;;19.20;99.90;;;;;;5038836;28;20638;-74
2024/02/01 08:58:09;;;;;;;17.30;7.30;;;19.70;99.90;;;;;;5032697;28;20540;-74
2024/02/01 09:00:36;;;;;;;15.90;6.45;;;20.30;99.90;;;;;;5038981;28;20063;-74
2024/02/01 09:03:05;;;;;;;11.40;6.35;;;20.70;99.90;;;;;;5035500;28;20026;-75
2024/02/01 09:05:33;;;;;;;13.93;6.22;;;20.90;99.70;;;;;;5037638;28;20022;-75
2024/02/01 09:08:00;;;;;;;16.25;6.25;;;21.10;99.60;;;;;;5034022;28;20119;-75
2024/02/01 09:10:26;;;;;;;21.90;7.68;;;21.20;99.40;;;;;;5031167;28;20029;-76
2024/02/01 09:12:52;;;;;;;15.05;7.03;;;21.40;99.20;;;;;;5034353;28;20030;-75
2024/02/01 09:15:17;;;;;;;18.63;6.63;;;21.60;98.90;;;;;;5028722;28;20041;-75
2024/02/01 09:17:46;;;;;;;15.80;6.27;;;21.20;99.20;;;;;;5040736;28;20026;-75
2024/02/01 09:20:19;;;;;;;13.25;5.95;;;21.00;99.30;;;;;;5033485;28;20733;-76
2024/02/01 09:22:54;;;;;;;13.15;6.13;;;20.90;99.40;;;;;;5032952;28;20021;-76
2024/02/01 09:25:26;;;;;;;13.45;6.00;;;21.30;99.20;;;;;;5039156;28;20394;-77
2024/02/01 09:27:53;;;;;;;14.10;6.55;;;21.90;98.60;;;;;;5041658;28;20128;-75
2024/02/01 09:30:20;;;;;;;17.52;7.05;;;22.20;98.20;;;;;;5033438;28;20037;-76
2024/02/01 09:32:51;;;;;;;20.15;6.38;;;22.20;98.60;;;;;;5034748;28;20498;-74
2024/02/01 09:35:17;;;;;;;12.20;5.55;;;22.10;98.30;;;;;;5031455;28;20091;-75
2024/02/01 09:37:43;;;;;;;;;;;22.50;98.00;;;;;;5031117;28;20026;-74
2024/02/01 09:40:12;;;;;;;11.60;5.22;;;22.70;97.90;;;;;;5029570;28;19917;-75
2024/02/01 09:42:41;;;;;;;16.35;6.22;;;22.60;98.00;;;;;;5033422;28;20061;-74
2024/02/01 09:45:09;;;;;;;14.50;5.47;;;22.30;98.20;;;;;;5028961;28;20088;-75
2024/02/01 09:47:43;;;;;;;15.80;6.22;;;22.40;98.20;;;;;;5030299;28;20030;-75
2024/02/01 09:50:14;;;;;;;11.48;5.43;;;22.70;98.20;;;;;;5028252;28;20025;-74
2024/02/01 09:52:44;;;;;;;17.20;5.85;;;22.70;98.20;;;;;;5036873;28;20030;-74
2024/02/01 09:55:17;;;;;;;14.07;5.95;;;22.50;98.50;;;;;;5031807;28;20397;-74
2024/02/01 09:57:45;;;;;;;12.68;4.78;;;22.50;98.60;;;;;;5032441;28;20030;-75
2024/02/01 10:00:15;;;;;;;11.20;5.15;;;22.80;98.30;;;;;;5035941;28;20079;-74
2024/02/01 10:02:46;;;;;;;12.18;4.57;;;22.50;98.50;;;;;;5034136;28;20064;-74
2024/02/01 10:05:12;;;;;;;15.10;5.60;;;22.30;98.80;;;;;;5043005;28;20068;-75
2024/02/01 10:07:38;;;;;;;13.32;5.40;;;21.80;99.10;;;;;;5038453;28;20086;-74
2024/02/01 10:10:06;;;;;;;12.45;4.88;;;21.50;99.60;;;;;;5030336;28;20040;-74
2024/02/01 10:12:32;;;;;;;8.98;4.10;;;21.90;99.40;;;;;;5033451;28;20057;-74
2024/02/01 10:15:10;;;;;;;13.15;4.43;;;22.30;99.00;;;;;;5029587;28;20041;-74
2024/02/01 10:17:45;;;;;;;14.10;5.45;;;22.30;98.90;;;;;;5030086;28;20033;-74
2024/02/01 10:20:34;;;;;;;9.98;3.97;;;22.30;99.00;;;;;;5031093;28;20639;-74
2024/02/01 10:23:09;;;;;;;17.05;4.72;;;22.10;99.00;;;;;;5025253;28;20021;-74
2024/02/01 10:25:42;;;;;;;13.10;4.88;;;22.00;99.40;;;;;;5036168;28;20540;-75
2024/02/01 10:28:09;;;;;;;14.00;4.53;;;21.90;99.00;;;;;;5042483;28;20032;-74
2024/02/01 10:30:49;;;;;;;13.05;4.32;;;21.30;99.40;;;;;;5030431;28;20029;-75
2024/02/01 10:33:19;;;;;;;14.45;4.47;;;21.00;99.80;;;;;;5029403;28;20506;-75
2024/02/01 10:35:51;;;;;;;16.27;4.65;;;21.50;99.40;;;;;;5032404;28;20037;-74
2024/02/01 10:38:24;;;;;;;18.05;4.50;;;21.50;99.20;;;;;;5037651;28;20108;-75
2024/02/01 10:40:53;;;;;;;16.98;4.72;;;21.70;99.00;;;;;;5037696;28;20040;-76
2024/02/01 10:43:29;;;;;;;10.27;4.35;;;22.30;98.60;;;;;;5033944;28;20045;-75
2024/02/01 10:46:08;;;;;;;14.25;4.03;;;22.40;98.10;;;;;;5024656;28;20030;-76
2024/02/01 10:48:53;;;;;;;11.55;3.72;;;21.40;98.90;;;;;;5040266;28;20033;-75
2024/02/01 10:51:20;;;;;;;11.68;3.28;;;20.70;99.70;;;;;;5036277;28;20432;-75
2024/02/01 10:53:47;;;;;;;9.95;3.85;;;20.40;99.90;;;;;;5034037;28;20049;-76
2024/02/01 10:56:17;;;;;;;12.02;3.88;;;21.30;99.70;;;;;;5035235;28;20482;-75
2024/02/01 10:58:51;;;;;;;14.20;3.95;;;21.70;98.90;;;;;;5031230;28;20045;-75
2024/02/01 11:01:19;;;;;;;10.32;3.78;;;22.10;98.70;;;;;;5036953;28;20080;-76
2024/02/01 11:03:49;;;;;;;10.80;3.30;;;23.30;97.50;;;;;;5039497;28;20033;-74
2024/02/01 11:06:17;;;;;;;10.38;3.42;;;23.80;96.50;;;;;;5036936;28;20029;-76
2024/02/01 11:08:45;;;;;;;9.90;3.78;;;23.20;96.90;;;;;;5039994;28;20065;-75
2024/02/01 11:11:16;;;;;;;14.63;4.07;;;22.90;97.40;;;;;;5036196;28;20033;-74
2024/02/01 11:14:09;;;;;;;9.45;3.33;;;22.50;97.30;;;;;;5031584;28;20036;-77
2024/02/01 11:16:42;;;;;;;10.00;3.28;;;21.50;98.20;;;;;;5026352;28;20065;-77
2024/02/01 11:19:12;;;;;;;13.15;3.08;;;21.70;98.20;;;;;;5032914;28;20033;-74
2024/02/01 11:21:48;;;;;;;9.38;3.42;;;21.70;97.90;;;;;;5033385;28;20027;-76
2024/02/01 11:24:17;;;;;;;10.98;2.63;;;21.10;98.70;;;;;;5030944;28;20029;-74
2024/02/01 11:26:46;;;;;;;12.30;3.75;;;21.00;98.90;;;;;;5031833;28;20430;-74
2024/02/01 11:29:18;;;;;;;9.25;3.20;;;20.80;99.10;;;;;;5038449;28;20029;-75
2024/02/01 11:31:44;;;;;;;10.88;2.88;;;20.70;99.30;;;;;;5036454;28;20063;-75
2024/02/01 11:34:12;;;;;;;8.10;2.95;;;20.90;99.10;;;;;;5033528;28;20042;-77
2024/02/01 11:36:43;;;;;;;9.85;3.60;;;20.90;99.10;;;;;;5036778;28;20413;-77
2024/02/01 11:39:11;;;;;;;9.10;2.97;;;20.90;99.20;;;;;;5033443;28;20025;-75
2024/02/01 11:41:37;;;;;;;8.68;3.35;;;20.80;99.10;;;;;;5025044;28;20519;-73
2024/02/01 11:44:04;;;;;;;9.25;3.03;;;20.70;99.30;;;;;;5027079;28;20031;-76
2024/02/01 11:46:30;;;;;;;10.45;3.28;;;20.50;99.60;;;;;;5024635;28;20076;-77
2024/02/01 11:48:56;;;;;;;8.02;2.65;;;20.70;99.50;;;;;;5030147;28;20029;-76
2024/02/01 11:51:25;;;;;;;14.57;3.25;;;20.50;99.40;;;;;;5029748;28;20041;-76
2024/02/01 11:53:52;;;;;;;13.07;3.25;;;20.20;99.90;;;;;;5027296;28;20037;-75
2024/02/01 11:56:23;;;;;;;10.30;3.33;;;20.10;99.90;;;;;;5020949;28;20041;-77
2024/02/01 11:58:49;;;;;;;18.42;3.08;;;19.90;99.90;;;;;;5024776;28;20570;-75
2024/02/01 12:01:15;;;;;;;19.90;3.88;;;19.70;99.90;;;;;;5033288;28;20029;-76
2024/02/01 12:03:49;;;;;;;13.23;3.45;;;19.70;99.90;;;;;;5024155;28;20482;-77
2024/02/01 12:06:22;;;;;;;15.60;3.00;;;19.60;99.90;;;;;;5029016;28;20486;-74
2024/02/01 12:08:48;;;;;;;9.30;3.20;;;19.40;99.90;;;;;;5028443;28;20030;-75
2024/02/01 12:11:14;;;;;;;9.77;3.17;;;19.30;99.90;;;;;;5029299;28;20075;-76
2024/02/01 12:13:46;;;;;;;12.23;2.92;;;19.40;99.90;;;;;;5024117;28;20032;-76
2024/02/01 12:16:30;;;;;;;15.73;3.10;;;19.50;99.90;;;;;;5021960;28;20537;-77
2024/02/01 12:18:58;;;;;;;12.40;3.17;;;19.60;99.90;;;;;;5027579;28;20079;-77
2024/02/01 12:21:27;;;;;;;11.75;3.10;;;19.50;99.90;;;;;;5030141;28;20774;-77
2024/02/01 12:23:56;;;;;;;7.43;2.47;;;19.40;99.90;;;;;;5037677;28;20040;-74
2024/02/01 12:26:25;;;;;;;10.25;3.17;;;19.30;99.90;;;;;;5036085;28;20071;-74
2024/02/01 12:28:52;;;;;;;11.70;2.60;;;19.40;99.90;;;;;;5028738;28;20490;-74
2024/02/01 12:31:18;;;;;;;9.35;2.58;;;19.50;99.90;;;;;;5028776;28;20030;-74
2024/02/01 12:33:45;;;;;;;9.57;2.60;;;19.60;99.90;;;;;;5029674;28;20703;-74
2024/02/01 12:36:11;;;;;;;12.05;3.13;;;19.70;99.90;;;;;;5024147;28;20030;-76
2024/02/01 12:38:44;;;;;;;13.90;2.77;;;19.70;99.90;;;;;;5026842;28;20458;-75
2024/02/01 12:41:19;;;;;;;18.75;3.00;;;19.60;99.90;;;;;;5025625;28;20032;-74
2024/02/01 12:43:45;;;;;;;18.88;2.80;;;19.50;99.90;;;;;;5035318;28;20025;-75
2024/02/01 12:46:11;;;;;;;20.17;3.43;;;19.40;99.90;;;;;;5033740;28;20463;-73
2024/02/01 12:48:40;;;;;;;14.18;3.20;;;19.40;99.90;;;;;;5032149;28;20511;-74
2024/02/01 12:51:06;;;;;;;13.95;2.95;;;19.40;99.90;;;;;;5033282;28;20073;-75
2024/02/01 12:53:33;;;;;;;17.67;3.63;;;19.40;99.90;;;;;;5031894;28;20833;-74
2024/02/01 12:55:59;;;;;;;15.20;3.70;;;19.50;99.90;;;;;;5033167;28;20048;-75
2024/02/01 12:58:24;;;;;;;16.77;2.93;;;19.40;99.90;;;;;;5033775;28;20030;-75
2024/02/01 13:00:51;;;;;;;12.93;2.40;;;19.50;99.90;;;;;;5033445;28;20037;-75
2024/02/01 13:03:18;;;;;;;12.55;2.72;;;19.40;99.90;;;;;;5025720;28;20038;-74
2024/02/01 13:05:44;;;;;;;10.65;2.13;;;19.50;99.90;;;;;;5025389;28;20120;-76
2024/02/01 13:08:14;;;;;;;17.15;3.95;;;19.50;99.90;;;;;;5026636;28;20171;-75
2024/02/01 13:10:41;;;;;;;12.63;3.20;;;19.50;99.90;;;;;;5024521;28;20037;-76
2024/02/01 13:13:08;;;;;;;17.92;3.03;;;19.50;99.90;;;;;;5027469;28;20037;-75
2024/02/01 13:15:34;;;;;;;18.10;3.75;;;19.40;99.90;;;;;;5016348;28;20367;-74
2024/02/01 13:17:59;;;;;;;19.88;3.05;;;19.40;99.90;;;;;;5029603;28;20394;-74
2024/02/01 13:20:26;;;;;;;12.10;2.90;;;19.50;99.90;;;;;;5022918;28;20034;-74
2024/02/01 13:22:53;;;;;;;10.90;2.00;;;19.50;99.90;;;;;;5033428;28;20470;-74
2024/02/01 13:25:20;;;;;;;10.95;3.38;;;19.50;99.90;;;;;;5032580;28;20477;-74
2024/02/01 13:27:50;;;;;;;10.00;2.85;;;19.50;99.90;;;;;;5031471;28;20179;-74
2024/02/01 13:30:17;;;;;;;7.82;2.63;;;19.40;99.90;;;;;;5030871;28;20029;-75
2024/02/01 13:32:44;;;;;;;13.02;2.72;;;19.50;99.90;;;;;;5017522;28;20025;-74
2024/02/01 13:35:11;;;;;;;15.25;2.33;;;19.50;99.90;;;;;;5032579;28;20386;-74
2024/02/01 13:37:37;;;;;;;;;;;19.50;99.90;;;;;;5032923;28;20033;-74
2024/02/01 13:40:07;;;;;;;11.20;2.00;;;19.50;99.90;;;;;;5031400;28;20292;-75
2024/02/01 13:42:36;;;;;;;11.73;2.70;;;19.60;99.90;;;;;;5023309;28;20118;-74
2024/02/01 13:45:02;;;;;;;14.55;2.15;;;19.60;99.90;;;;;;5018682;28;20037;-75